Time;durP1;ratioP1;P1;durP2;ratioP2;P2;SDS_P1;SDS_P2;PMS_P1;PMS_P2;Temp;Humidity;BMP_temperature;BMP_pressure;BME280_temperature;BME280_humidity;BME280_pressure;Samples;Min_cycle;Max_cycle;Signal;HPM_P1;HPM_P2
2022/06/30 00:00:51;;;;;;;;;;;29.50;88.60;;;;;;5064375;28;19956;-52
2022/06/30 00:03:17;;;;;;;;;;;29.30;89.00;;;;;;5064739;28;19911;-54
2022/06/30 00:05:44;;;;;;;;;;;29.10;89.00;;;;;;5064337;28;19920;-52
2022/06/30 00:08:10;;;;;;;;;;;28.90;90.00;;;;;;5064427;28;19963;-52
2022/06/30 00:10:36;;;;;;;;;;;28.80;90.20;;;;;;5064552;28;19909;-48
2022/06/30 00:13:02;;;;;;;;;;;28.80;90.30;;;;;;5064082;28;19965;-48
2022/06/30 00:15:28;;;;;;;;;;;28.70;90.10;;;;;;5064315;28;19975;-50
2022/06/30 00:17:54;;;;;;;;;;;28.70;90.30;;;;;;5064330;28;19909;-48
2022/06/30 00:20:20;;;;;;;;;;;28.70;90.30;;;;;;5063822;28;19912;-57
2022/06/30 00:22:47;;;;;;;;;;;28.60;90.10;;;;;;5064354;28;19908;-52
2022/06/30 00:25:17;;;;;;;;;;;28.60;90.40;;;;;;5064255;28;20117;-51
2022/06/30 00:27:44;;;;;;;;;;;28.50;90.70;;;;;;5063795;28;19904;-49
2022/06/30 00:30:10;;;;;;;;;;;28.50;90.70;;;;;;5064071;28;19911;-49
2022/06/30 00:32:36;;;;;;;;;;;28.50;91.00;;;;;;5064165;28;19904;-50
2022/06/30 00:35:03;;;;;;;;;;;28.40;91.40;;;;;;5064118;28;20192;-49
2022/06/30 00:37:29;;;;;;;;;;;28.30;91.90;;;;;;5064198;28;19914;-54
2022/06/30 00:39:55;;;;;;;;;;;28.20;92.20;;;;;;5064351;28;19905;-52
2022/06/30 00:42:22;;;;;;;;;;;28.20;92.70;;;;;;5063550;28;19904;-49
2022/06/30 00:44:48;;;;;;;;;;;28.10;93.00;;;;;;5064066;28;19972;-49
2022/06/30 00:47:14;;;;;;;;;;;28.00;92.90;;;;;;5063892;28;19901;-52
2022/06/30 00:49:40;;;;;;;;;;;28.00;93.20;;;;;;5063878;28;20240;-54
2022/06/30 00:52:09;;;;;;;;;;;28.00;93.50;;;;;;5063852;28;19971;-51
2022/06/30 00:54:36;;;;;;;;;;;27.90;93.70;;;;;;5063793;28;19936;-53
2022/06/30 00:57:02;;;;;;;;;;;27.90;93.70;;;;;;5095716;28;20148;-52
2022/06/30 00:59:29;;;;;;;;;;;27.80;93.70;;;;;;5064098;28;19904;-51
2022/06/30 01:01:55;;;;;;;;;;;27.80;93.80;;;;;;5063702;28;20200;-55
2022/06/30 01:04:22;;;;;;;;;;;27.70;94.10;;;;;;5064003;28;20087;-53
2022/06/30 01:06:49;;;;;;;;;;;27.80;94.20;;;;;;5063840;28;19908;-57
2022/06/30 01:12:41;;;;;;;;;;;27.70;94.70;;;;;;5064266;28;20192;-54
2022/06/30 01:14:46;;;;;;;;;;;27.70;94.30;;;;;;5063782;28;19972;-53
2022/06/30 01:17:12;;;;;;;;;;;27.80;94.20;;;;;;5063154;28;19904;-50
2022/06/30 01:19:49;;;;;;;;;;;27.80;94.00;;;;;;5063919;28;19971;-49
2022/06/30 01:22:16;;;;;;;;;;;27.90;93.80;;;;;;5063697;28;19907;-54
2022/06/30 01:24:42;;;;;;;;;;;27.90;93.70;;;;;;5063946;28;19909;-54
2022/06/30 01:27:08;;;;;;;;;;;27.90;93.70;;;;;;5063617;28;19901;-48
2022/06/30 01:29:34;;;;;;;;;;;27.80;94.00;;;;;;5063596;28;20174;-54
2022/06/30 01:32:00;;;;;;;;;;;27.70;94.30;;;;;;5063679;28;20009;-49
2022/06/30 01:34:27;;;;;;;;;;;27.60;94.30;;;;;;5064339;28;19927;-49
2022/06/30 01:36:53;;;;;;;;;;;27.50;94.50;;;;;;5063965;28;20212;-49
2022/06/30 01:39:19;;;;;;;;;;;27.60;94.50;;;;;;5064920;28;19921;-51
2022/06/30 01:41:45;;;;;;;;;;;27.60;94.60;;;;;;5063977;28;19908;-50
2022/06/30 01:44:11;;;;;;;;;;;27.60;94.60;;;;;;5064584;28;19912;-53
2022/06/30 01:46:45;;;;;;;;;;;27.60;94.80;;;;;;5063705;28;19912;-53
2022/06/30 01:49:12;;;;;;;;;;;27.60;94.50;;;;;;5063571;28;19920;-48
2022/06/30 01:51:38;;;;;;;;;;;27.50;94.60;;;;;;5063220;28;19989;-55
2022/06/30 01:54:04;;;;;;;;;;;27.60;94.90;;;;;;5064263;28;19955;-53
2022/06/30 01:56:30;;;;;;;;;;;27.60;94.50;;;;;;5063760;28;19932;-46
2022/06/30 01:58:56;;;;;;;;;;;27.60;94.50;;;;;;5064369;28;19954;-48
2022/06/30 02:01:22;;;;;;;;;;;27.40;94.70;;;;;;5063983;28;19924;-53
2022/06/30 02:03:48;;;;;;;;;;;27.50;94.50;;;;;;5055554;28;19905;-54
2022/06/30 02:06:15;;;;;;;;;;;27.60;94.20;;;;;;5066576;28;19946;-53
2022/06/30 02:08:41;;;;;;;;;;;27.70;93.90;;;;;;5082140;28;19912;-50
2022/06/30 02:11:07;;;;;;;;;;;27.80;93.80;;;;;;5066793;28;19975;-51
2022/06/30 02:13:33;;;;;;;;;;;27.90;93.70;;;;;;5066841;28;20200;-49
2022/06/30 02:15:59;;;;;;;;;;;27.90;93.60;;;;;;5066049;28;19928;-51
2022/06/30 02:18:25;;;;;;;;;;;27.90;93.50;;;;;;5065578;28;19959;-51
2022/06/30 02:20:52;;;;;;;;;;;27.90;93.70;;;;;;5066388;28;19901;-55
2022/06/30 02:23:18;;;;;;;;;;;28.00;93.90;;;;;;5066112;28;19955;-52
2022/06/30 02:25:44;;;;;;;;;;;28.00;93.60;;;;;;5066143;28;19923;-52
2022/06/30 02:28:10;;;;;;;;;;;28.00;93.50;;;;;;5066713;28;19920;-54
2022/06/30 02:30:36;;;;;;;;;;;28.00;93.50;;;;;;5066756;28;20062;-51
2022/06/30 02:33:03;;;;;;;;;;;28.00;93.30;;;;;;5066554;28;19908;-51
2022/06/30 02:35:29;;;;;;;;;;;28.00;93.20;;;;;;5066055;28;19901;-48
2022/06/30 02:37:56;;;;;;;;;;;28.00;93.20;;;;;;5066477;28;20195;-55
2022/06/30 02:40:22;;;;;;;;;;;28.00;93.20;;;;;;5066353;28;19901;-53
2022/06/30 02:42:48;;;;;;;;;;;28.00;92.90;;;;;;5065629;28;19971;-59
2022/06/30 02:45:15;;;;;;;;;;;27.90;92.60;;;;;;5065759;28;19916;-55
2022/06/30 02:47:42;;;;;;;;;;;27.90;92.60;;;;;;5066173;28;19935;-53
2022/06/30 02:50:12;;;;;;;;;;;27.80;92.50;;;;;;5066062;28;20096;-55
2022/06/30 02:52:38;;;;;;;;;;;27.80;92.20;;;;;;5066118;28;19940;-53
2022/06/30 02:55:05;;;;;;;;;;;27.80;92.20;;;;;;5065855;28;19900;-55
2022/06/30 02:57:31;;;;;;;;;;;27.70;91.90;;;;;;5065981;28;19949;-58
2022/06/30 02:59:57;;;;;;;;;;;27.70;92.00;;;;;;5066019;28;19949;-51
2022/06/30 03:02:23;;;;;;;;;;;27.60;91.90;;;;;;5065806;28;19917;-50
2022/06/30 03:04:52;;;;;;;;;;;27.60;92.00;;;;;;5066176;28;19924;-53
2022/06/30 03:07:18;;;;;;;;;;;27.50;92.00;;;;;;5065904;28;19913;-54
2022/06/30 03:09:44;;;;;;;;;;;27.40;92.00;;;;;;5065900;28;19913;-48
2022/06/30 03:12:10;;;;;;;;;;;27.40;92.00;;;;;;5066191;28;20181;-58
2022/06/30 03:14:37;;;;;;;;;;;27.40;91.90;;;;;;5065958;28;19944;-61
2022/06/30 03:17:03;;;;;;;;;;;27.40;91.90;;;;;;5065361;28;19942;-55
2022/06/30 03:19:29;;;;;;;;;;;27.40;92.00;;;;;;5065969;28;20255;-49
2022/06/30 03:21:55;;;;;;;;;;;27.40;92.10;;;;;;5065893;28;19900;-59
2022/06/30 03:24:21;;;;;;;;;;;27.40;92.30;;;;;;5066123;28;20103;-52
2022/06/30 03:26:49;;;;;;;;;;;27.40;92.20;;;;;;5065459;28;19909;-52
2022/06/30 03:29:15;;;;;;;;;;;27.40;92.40;;;;;;5066085;28;19936;-53
2022/06/30 03:31:41;;;;;;;;;;;27.40;92.30;;;;;;5065821;28;19976;-52
2022/06/30 03:34:07;;;;;;;;;;;27.40;92.20;;;;;;5065994;28;19916;-50
2022/06/30 03:36:33;;;;;;;;;;;27.30;92.30;;;;;;5065292;28;19909;-57
2022/06/30 03:38:59;;;;;;;;;;;27.30;92.30;;;;;;5065794;28;19911;-47
2022/06/30 03:41:26;;;;;;;;;;;27.40;92.30;;;;;;5065171;28;19908;-50
2022/06/30 03:43:52;;;;;;;;;;;27.30;92.10;;;;;;5065799;28;19922;-48
2022/06/30 03:46:18;;;;;;;;;;;27.40;92.10;;;;;;5065159;28;20065;-53
2022/06/30 03:48:44;;;;;;;;;;;27.40;92.10;;;;;;5065426;28;19911;-46
2022/06/30 03:51:11;;;;;;;;;;;27.40;92.10;;;;;;5065190;28;19913;-55
2022/06/30 03:53:38;;;;;;;;;;;27.40;92.20;;;;;;5065465;28;19900;-55
2022/06/30 03:56:05;;;;;;;;;;;27.40;92.20;;;;;;5064138;28;19908;-53
2022/06/30 03:58:31;;;;;;;;;;;27.40;92.30;;;;;;5065376;28;19950;-54
2022/06/30 04:00:57;;;;;;;;;;;27.30;92.30;;;;;;5064931;28;19939;-48
2022/06/30 04:03:24;;;;;;;;;;;27.40;92.30;;;;;;5065213;28;19909;-54
2022/06/30 04:05:50;;;;;;;;;;;27.30;92.20;;;;;;5065014;28;20185;-54
2022/06/30 04:08:16;;;;;;;;;;;27.40;92.30;;;;;;5065163;28;19905;-50
2022/06/30 04:10:42;;;;;;;;;;;27.40;92.20;;;;;;5064774;28;19932;-58
2022/06/30 04:13:09;;;;;;;;;;;27.40;92.20;;;;;;5064972;28;20169;-54
2022/06/30 04:15:35;;;;;;;;;;;27.40;92.20;;;;;;5064615;28;20006;-52
2022/06/30 04:18:01;;;;;;;;;;;27.30;92.10;;;;;;5064660;28;20078;-54
2022/06/30 04:20:27;;;;;;;;;;;27.30;92.10;;;;;;5064617;28;19909;-48
2022/06/30 04:22:53;;;;;;;;;;;27.40;92.10;;;;;;5057057;28;19968;-49
2022/06/30 04:25:20;;;;;;;;;;;27.30;92.10;;;;;;5044375;28;20097;-52
2022/06/30 04:27:47;;;;;;;;;;;27.30;92.10;;;;;;5044695;28;19916;-57
2022/06/30 04:30:14;;;;;;;;;;;27.30;92.00;;;;;;5044649;28;19912;-54
2022/06/30 04:32:41;;;;;;;;;;;27.30;92.00;;;;;;5044655;28;19971;-60
2022/06/30 04:35:08;;;;;;;;;;;27.30;92.00;;;;;;5044248;28;19905;-48
2022/06/30 04:37:34;;;;;;;;;;;27.30;92.00;;;;;;5044465;28;19955;-52
2022/06/30 04:42:45;;;;;;;;;;;27.30;92.00;;;;;;5044536;28;19912;-49
2022/06/30 04:45:11;;;;;;;;;;;27.30;92.00;;;;;;5044208;28;20208;-54
2022/06/30 04:47:37;;;;;;;;;;;27.30;91.90;;;;;;5044342;28;20142;-53
2022/06/30 04:50:04;;;;;;;;;;;27.20;91.80;;;;;;5049193;28;19909;-55
2022/06/30 04:52:30;;;;;;;;;;;27.30;91.90;;;;;;5050711;28;19905;-51
2022/06/30 04:54:56;;;;;;;;;;;27.20;91.80;;;;;;5044006;28;19905;-53
2022/06/30 04:57:22;;;;;;;;;;;27.20;91.90;;;;;;5044236;28;19913;-58
2022/06/30 04:59:48;;;;;;;;;;;27.20;91.90;;;;;;5044219;28;19905;-51
2022/06/30 05:02:15;;;;;;;;;;;27.20;91.90;;;;;;5043965;28;19913;-51
2022/06/30 05:04:42;;;;;;;;;;;27.20;91.90;;;;;;5043937;28;19909;-53
2022/06/30 05:07:08;;;;;;;;;;;27.10;92.00;;;;;;5044142;28;19912;-53
2022/06/30 05:09:35;;;;;;;;;;;27.10;91.90;;;;;;5043869;28;20082;-56
2022/06/30 05:12:01;;;;;;;;;;;27.10;91.90;;;;;;5046713;28;19908;-53
2022/06/30 05:14:27;;;;;;;;;;;27.10;92.10;;;;;;5052642;28;20093;-49
2022/06/30 05:16:53;;;;;;;;;;;27.10;92.20;;;;;;5044016;28;19954;-50
2022/06/30 05:19:19;;;;;;;;;;;27.10;92.10;;;;;;5044395;28;19971;-51
2022/06/30 05:21:45;;;;;;;;;;;27.10;92.10;;;;;;5044050;28;19941;-54
2022/06/30 05:26:55;;;;;;;;;;;27.00;92.30;;;;;;5043945;28;19959;-54
2022/06/30 05:29:22;;;;;;;;;;;27.00;92.40;;;;;;5044540;28;19933;-53
2022/06/30 05:31:48;;;;;;;;;;;27.00;92.50;;;;;;5043828;28;19912;-53
2022/06/30 05:34:14;;;;;;;;;;;27.00;92.50;;;;;;5044588;28;20232;-54
2022/06/30 05:36:40;;;;;;;;;;;26.90;92.50;;;;;;5047715;28;19909;-51
2022/06/30 05:39:06;;;;;;;;;;;26.90;92.50;;;;;;5047549;28;19931;-49
2022/06/30 05:41:32;;;;;;;;;;;26.90;92.50;;;;;;5047686;28;19905;-57
2022/06/30 05:43:58;;;;;;;;;;;26.90;92.60;;;;;;5047898;28;19911;-54
2022/06/30 05:46:24;;;;;;;;;;;26.90;92.40;;;;;;5047557;28;19909;-54
2022/06/30 05:48:51;;;;;;;;;;;26.90;92.50;;;;;;5047967;28;19924;-51
2022/06/30 05:51:17;;;;;;;;;;;26.90;92.60;;;;;;5047371;28;19905;-58
2022/06/30 05:53:43;;;;;;;;;;;26.90;92.50;;;;;;5047546;28;19968;-52
2022/06/30 05:56:09;;;;;;;;;;;26.90;92.50;;;;;;5047204;28;19909;-58
2022/06/30 05:58:35;;;;;;;;;;;26.90;92.60;;;;;;5047625;28;19915;-50
2022/06/30 06:01:01;;;;;;;;;;;26.90;92.70;;;;;;5047126;28;19984;-57
2022/06/30 06:03:27;;;;;;;;;;;26.90;92.60;;;;;;5047235;28;19978;-52
2022/06/30 06:05:53;;;;;;;;;;;26.90;92.60;;;;;;5047170;28;20141;-51
2022/06/30 06:08:19;;;;;;;;;;;26.80;92.60;;;;;;5047408;28;19928;-48
2022/06/30 06:10:46;;;;;;;;;;;26.80;92.70;;;;;;5047039;28;19905;-57
2022/06/30 06:13:13;;;;;;;;;;;26.80;92.70;;;;;;5047013;28;19905;-50
2022/06/30 06:15:39;;;;;;;;;;;26.80;92.60;;;;;;5046998;28;19910;-54
2022/06/30 06:18:05;;;;;;;;;;;26.80;92.60;;;;;;5047025;28;19909;-54
2022/06/30 06:20:31;;;;;;;;;;;26.80;92.80;;;;;;5046923;28;19938;-51
2022/06/30 06:22:57;;;;;;;;;;;26.70;92.80;;;;;;5046904;28;19905;-49
2022/06/30 06:25:24;;;;;;;;;;;26.80;92.80;;;;;;5046764;28;19948;-50
2022/06/30 06:30:35;;;;;;;;;;;26.70;92.70;;;;;;5046766;28;19943;-54
2022/06/30 06:33:01;;;;;;;;;;;26.70;92.80;;;;;;5046582;28;19905;-49
2022/06/30 06:35:27;;;;;;;;;;;26.70;92.70;;;;;;5046745;28;20291;-50
2022/06/30 06:37:53;;;;;;;;;;;26.70;92.80;;;;;;5046702;28;19912;-49
2022/06/30 06:40:19;;;;;;;;;;;26.70;92.90;;;;;;5046454;28;19905;-55
2022/06/30 06:42:45;;;;;;;;;;;26.60;92.80;;;;;;5046442;28;19905;-52
2022/06/30 06:45:11;;;;;;;;;;;26.60;92.80;;;;;;5046068;28;19945;-55
2022/06/30 06:47:37;;;;;;;;;;;26.60;92.90;;;;;;5046351;28;19905;-50
2022/06/30 06:50:04;;;;;;;;;;;26.60;93.00;;;;;;5046440;28;20101;-52
2022/06/30 06:52:30;;;;;;;;;;;26.60;93.00;;;;;;5046333;28;19975;-59
2022/06/30 06:54:56;;;;;;;;;;;26.60;93.00;;;;;;5046210;28;20212;-58
2022/06/30 06:57:22;;;;;;;;;;;26.70;93.10;;;;;;5046229;28;19909;-59
2022/06/30 06:59:49;;;;;;;;;;;26.60;93.00;;;;;;5046276;28;19905;-49
2022/06/30 07:02:15;;;;;;;;;;;26.60;93.10;;;;;;5045660;28;20098;-53
2022/06/30 07:04:41;;;;;;;;;;;26.60;93.10;;;;;;5046220;28;19920;-48
2022/06/30 07:07:07;;;;;;;;;;;26.60;93.10;;;;;;5045990;28;20094;-51
2022/06/30 07:09:34;;;;;;;;;;;26.60;93.10;;;;;;5045883;28;19909;-55
2022/06/30 07:12:00;;;;;;;;;;;26.60;93.10;;;;;;5045720;28;19901;-55
2022/06/30 07:14:27;;;;;;;;;;;26.60;93.20;;;;;;5045965;28;19913;-56
2022/06/30 07:16:53;;;;;;;;;;;26.60;93.20;;;;;;5045870;28;20112;-56
2022/06/30 07:19:19;;;;;;;;;;;26.60;93.30;;;;;;5046241;28;19972;-56
2022/06/30 07:21:45;;;;;;;;;;;26.60;93.40;;;;;;5045723;28;20202;-58
2022/06/30 07:24:11;;;;;;;;;;;26.60;93.40;;;;;;5046227;28;19905;-47
2022/06/30 07:26:37;;;;;;;;;;;26.60;93.40;;;;;;5045531;28;19960;-49
2022/06/30 07:29:03;;;;;;;;;;;26.60;93.50;;;;;;5046113;28;19901;-50
2022/06/30 07:31:30;;;;;;;;;;;26.60;93.50;;;;;;5045483;28;20248;-49
2022/06/30 07:33:56;;;;;;;;;;;26.60;93.50;;;;;;5045791;28;19952;-53
2022/06/30 07:36:22;;;;;;;;;;;26.60;93.60;;;;;;5045685;28;20078;-53
2022/06/30 07:38:49;;;;;;;;;;;26.50;93.60;;;;;;5045797;28;19979;-58
2022/06/30 07:41:16;;;;;;;;;;;26.60;93.60;;;;;;5045169;28;19909;-52
2022/06/30 07:43:43;;;;;;;;;;;26.50;93.60;;;;;;5045825;28;19992;-52
2022/06/30 07:46:09;;;;;;;;;;;26.60;93.70;;;;;;5045608;28;19916;-58
2022/06/30 07:48:35;;;;;;;;;;;26.50;93.70;;;;;;5045459;28;20004;-48
2022/06/30 07:51:01;;;;;;;;;;;26.50;93.60;;;;;;5044993;28;19916;-52
2022/06/30 07:53:27;;;;;;;;;;;26.50;93.50;;;;;;5045359;28;20173;-49
2022/06/30 07:55:54;;;;;;;;;;;26.50;93.50;;;;;;5045029;28;19909;-49
2022/06/30 07:58:20;;;;;;;;;;;26.50;93.50;;;;;;5044668;28;20112;-63
2022/06/30 08:00:46;;;;;;;;;;;26.40;93.50;;;;;;5044710;28;19984;-57
2022/06/30 08:03:12;;;;;;;;;;;26.50;93.60;;;;;;5045237;28;19944;-52
2022/06/30 08:05:38;;;;;;;;;;;26.50;93.80;;;;;;5045277;28;19913;-49
2022/06/30 08:08:04;;;;;;;;;;;26.50;93.50;;;;;;5044853;28;19905;-54
2022/06/30 08:10:30;;;;;;;;;;;26.40;93.40;;;;;;5044750;28;19905;-52
2022/06/30 08:12:57;;;;;;;;;;;26.40;93.50;;;;;;5044878;28;19909;-51
2022/06/30 08:15:23;;;;;;;;;;;26.40;93.50;;;;;;5044786;28;19912;-54
2022/06/30 08:17:49;;;;;;;;;;;26.40;93.60;;;;;;5044799;28;20208;-54
2022/06/30 08:20:15;;;;;;;;;;;26.40;93.60;;;;;;5044436;28;20189;-55
2022/06/30 08:22:41;;;;;;;;;;;26.40;93.60;;;;;;5044867;28;20008;-58
2022/06/30 08:25:08;;;;;;;;;;;26.30;93.60;;;;;;5044727;28;19928;-48
2022/06/30 08:27:34;;;;;;;;;;;26.40;93.60;;;;;;5044622;28;20003;-49
2022/06/30 08:30:00;;;;;;;;;;;26.30;93.60;;;;;;5044575;28;20191;-50
2022/06/30 08:32:26;;;;;;;;;;;26.30;93.50;;;;;;5044601;28;19910;-48
2022/06/30 08:34:52;;;;;;;;;;;26.30;93.50;;;;;;5044400;28;20228;-50
2022/06/30 08:37:18;;;;;;;;;;;26.30;93.50;;;;;;5044371;28;19909;-52
2022/06/30 08:42:30;;;;;;;;;;;26.30;93.60;;;;;;5044404;28;19916;-48
2022/06/30 08:45:17;;;;;;;;;;;26.30;93.60;;;;;;5044433;28;19905;-49
2022/06/30 08:47:45;;;;;;;;;;;26.30;93.50;;;;;;5044614;28;19912;-53
2022/06/30 08:50:12;;;;;;;;;;;26.20;93.60;;;;;;5044047;28;19912;-53
2022/06/30 08:52:41;;;;;;;;;;;26.30;93.70;;;;;;5044403;28;19948;-52
2022/06/30 08:55:08;;;;;;;;;;;26.20;93.60;;;;;;5044213;28;19905;-58
2022/06/30 08:57:34;;;;;;;;;;;26.20;93.60;;;;;;5044261;28;19954;-60
2022/06/30 09:00:00;;;;;;;;;;;26.20;93.60;;;;;;5044038;28;19905;-49
2022/06/30 09:02:26;;;;;;;;;;;26.20;93.50;;;;;;5043902;28;19960;-53
2022/06/30 09:04:53;;;;;;;;;;;26.20;93.50;;;;;;5044283;28;19943;-53
2022/06/30 09:07:19;;;;;;;;;;;26.20;93.50;;;;;;5044392;28;19905;-49
2022/06/30 09:09:45;;;;;;;;;;;26.20;93.60;;;;;;5046877;28;19909;-58
2022/06/30 09:12:15;;;;;;;;;;;26.10;93.60;;;;;;5048211;28;19905;-57
2022/06/30 09:14:46;;;;;;;;;;;26.10;93.60;;;;;;5048169;28;19909;-55
2022/06/30 09:17:19;;;;;;;;;;;26.10;93.60;;;;;;5047970;28;20129;-48
2022/06/30 09:19:51;;;;;;;;;;;26.10;93.60;;;;;;5048057;28;19944;-55
2022/06/30 09:22:17;;;;;;;;;;;26.10;93.50;;;;;;5047803;28;20074;-55
2022/06/30 09:24:43;;;;;;;;;;;26.10;93.50;;;;;;5080229;28;20096;-52
2022/06/30 09:27:20;;;;;;;;;;;26.10;93.50;;;;;;5047907;28;19901;-57
2022/06/30 09:29:59;;;;;;;;;;;26.10;93.50;;;;;;5047588;28;19909;-51
2022/06/30 09:32:25;;;;;;;;;;;26.10;93.50;;;;;;5047832;28;19905;-54
2022/06/30 09:34:52;;;;;;;;;;;26.10;93.50;;;;;;5047737;28;19908;-49
2022/06/30 09:37:20;;;;;;;;;;;26.00;93.50;;;;;;5047704;28;19912;-52
2022/06/30 09:39:47;;;;;;;;;;;26.00;93.50;;;;;;5047560;28;19913;-49
2022/06/30 09:42:13;;;;;;;;;;;26.00;93.50;;;;;;5047674;28;19927;-52
2022/06/30 09:44:40;;;;;;;;;;;26.00;93.60;;;;;;5047430;28;19916;-51
2022/06/30 09:47:08;;;;;;;;;;;26.00;93.60;;;;;;5047504;28;19964;-50
2022/06/30 09:49:36;;;;;;;;;;;26.00;93.50;;;;;;5047448;28;19909;-49
2022/06/30 09:52:03;;;;;;;;;;;26.00;93.60;;;;;;5047410;28;19912;-51
2022/06/30 09:54:33;;;;;;;;;;;25.90;93.60;;;;;;5062949;28;20101;-49
2022/06/30 09:57:06;;;;;;;;;;;25.90;93.60;;;;;;5047177;28;19901;-55
2022/06/30 09:59:35;;;;;;;;;;;25.90;93.60;;;;;;5047198;28;19908;-50
2022/06/30 10:02:06;;;;;;;;;;;25.90;93.60;;;;;;5047072;28;19921;-50
2022/06/30 10:04:51;;;;;;;;;;;25.90;93.50;;;;;;5047257;28;19909;-60
2022/06/30 10:07:17;;;;;;;;;;;25.90;93.50;;;;;;5047204;28;19972;-50
2022/06/30 10:09:43;;;;;;;;;;;25.90;93.60;;;;;;5046987;28;19916;-48
2022/06/30 10:12:10;;;;;;;;;;;25.90;93.60;;;;;;5047239;28;20192;-52
2022/06/30 10:14:37;;;;;;;;;;;25.90;93.60;;;;;;5047125;28;19909;-49
2022/06/30 10:17:06;;;;;;;;;;;25.90;93.70;;;;;;5047116;28;20227;-57
2022/06/30 10:19:33;;;;;;;;;;;25.90;93.70;;;;;;5046964;28;19908;-51
2022/06/30 10:22:00;;;;;;;;;;;25.90;93.70;;;;;;5046581;28;20093;-51
2022/06/30 10:24:26;;;;;;;;;;;25.90;93.80;;;;;;5046860;28;20235;-52
2022/06/30 10:29:40;;;;;;;;;;;25.90;93.80;;;;;;5046582;28;19950;-53
2022/06/30 10:32:09;;;;;;;;;;;25.80;93.80;;;;;;5046571;28;19920;-49
2022/06/30 10:34:38;;;;;;;;;;;25.90;93.80;;;;;;5046655;28;20193;-52
2022/06/30 10:37:24;;;;;;;;;;;25.90;93.90;;;;;;5046421;28;20187;-53
2022/06/30 10:39:57;;;;;;;;;;;25.90;93.90;;;;;;5046227;28;19913;-52
2022/06/30 10:42:41;;;;;;;;;;;25.80;93.90;;;;;;5046448;28;19906;-50
2022/06/30 10:45:25;;;;;;;;;;;25.80;93.90;;;;;;5046406;28;20217;-56
2022/06/30 10:48:08;;;;;;;;;;;25.80;93.90;;;;;;5046636;28;19901;-51
2022/06/30 10:50:35;;;;;;;;;;;25.90;94.00;;;;;;5046049;28;20215;-49
2022/06/30 10:53:02;;;;;;;;;;;25.80;94.10;;;;;;5046482;28;19913;-48
2022/06/30 10:55:28;;;;;;;;;;;25.80;94.10;;;;;;5046440;28;19915;-54
2022/06/30 10:58:02;;;;;;;;;;;25.80;94.20;;;;;;5046191;28;19905;-51
2022/06/30 11:00:55;;;;;;;;;;;25.80;94.20;;;;;;5045775;28;20083;-51
2022/06/30 11:03:30;;;;;;;;;;;25.80;94.20;;;;;;5046046;28;20218;-50
2022/06/30 11:05:57;;;;;;;;;;;25.80;94.20;;;;;;5045928;28;19943;-53
2022/06/30 11:08:36;;;;;;;;;;;25.80;94.30;;;;;;5046231;28;19912;-55
2022/06/30 11:11:21;;;;;;;;;;;25.80;94.40;;;;;;5045535;28;19905;-49
2022/06/30 11:13:47;;;;;;;;;;;25.80;94.40;;;;;;5046206;28;19937;-48
2022/06/30 11:16:14;;;;;;;;;;;25.90;94.40;;;;;;5045885;28;19927;-52
2022/06/30 11:18:40;;;;;;;;;;;25.80;94.40;;;;;;5046055;28;19983;-53
2022/06/30 11:21:06;;;;;;;;;;;25.80;94.50;;;;;;5045387;28;19905;-53
2022/06/30 11:23:46;;;;;;;;;;;25.80;94.50;;;;;;5045496;28;19924;-55
2022/06/30 11:28:58;;;;;;;;;;;25.90;94.60;;;;;;5046096;28;19912;-50
2022/06/30 11:31:26;;;;;;;;;;;25.80;94.50;;;;;;5045224;28;20248;-56
2022/06/30 11:34:04;;;;;;;;;;;25.80;94.50;;;;;;5045064;28;20165;-48
2022/06/30 11:36:30;;;;;;;;;;;25.80;94.60;;;;;;5045353;28;20232;-48
2022/06/30 11:38:58;;;;;;;;;;;25.90;94.60;;;;;;5045689;28;19909;-50
2022/06/30 11:44:14;;;;;;;;;;;25.90;94.60;;;;;;5045596;28;19943;-50
2022/06/30 11:46:50;;;;;;;;;;;25.80;94.70;;;;;;5045335;28;19947;-50
2022/06/30 11:49:16;;;;;;;;;;;25.80;94.70;;;;;;5045648;28;19942;-49
2022/06/30 11:51:43;;;;;;;;;;;25.90;94.80;;;;;;5045151;28;20189;-48
2022/06/30 11:54:11;;;;;;;;;;;25.90;94.70;;;;;;5045466;28;19905;-50
2022/06/30 11:56:47;;;;;;;;;;;25.90;94.70;;;;;;5045134;28;19909;-49
2022/06/30 11:59:14;;;;;;;;;;;25.90;94.70;;;;;;5045424;28;20261;-48
2022/06/30 12:01:40;;;;;;;;;;;25.90;94.70;;;;;;5076938;28;20136;-49
2022/06/30 12:04:18;;;;;;;;;;;25.90;94.80;;;;;;5045367;28;19968;-53
2022/06/30 12:06:44;;;;;;;;;;;25.90;94.80;;;;;;5044852;28;19928;-47
2022/06/30 12:09:10;;;;;;;;;;;25.90;94.80;;;;;;5045414;28;19917;-48
2022/06/30 12:11:37;;;;;;;;;;;25.90;94.70;;;;;;5044846;28;20100;-52
2022/06/30 12:14:03;;;;;;;;;;;25.90;95.10;;;;;;5045234;28;19917;-49
2022/06/30 12:16:30;;;;;;;;;;;25.80;95.10;;;;;;5044739;28;19905;-50
2022/06/30 12:18:56;;;;;;;;;;;25.80;95.20;;;;;;5045018;28;19917;-49
2022/06/30 12:21:22;;;;;;;;;;;25.80;95.30;;;;;;5044549;28;19909;-54
2022/06/30 12:23:49;;;;;;;;;;;25.80;95.30;;;;;;5045007;28;19905;-53
2022/06/30 12:26:15;;;;;;;;;;;25.80;95.30;;;;;;5044421;28;19905;-50
2022/06/30 12:28:50;;;;;;;;;;;25.80;95.30;;;;;;5044645;28;19986;-51
2022/06/30 12:31:23;;;;;;;;;;;25.80;95.30;;;;;;5044366;28;20251;-53
2022/06/30 12:33:50;;;;;;;;;;;25.70;95.20;;;;;;5044640;28;20093;-50
2022/06/30 12:36:16;;;;;;;;;;;25.80;95.20;;;;;;5044137;28;19905;-49
2022/06/30 12:38:42;;;;;;;;;;;25.70;95.20;;;;;;5044691;28;19972;-54
2022/06/30 12:41:09;;;;;;;;;;;25.80;95.40;;;;;;5044216;28;20233;-53
2022/06/30 12:43:49;;;;;;;;;;;25.80;95.50;;;;;;5044360;28;19943;-59
2022/06/30 12:46:18;;;;;;;;;;;25.70;95.50;;;;;;5044049;28;19905;-59
2022/06/30 12:48:52;;;;;;;;;;;25.70;95.50;;;;;;5044502;28;19909;-62
2022/06/30 12:51:28;;;;;;;;;;;25.70;95.70;;;;;;5044142;28;19905;-55
2022/06/30 12:54:01;;;;;;;;;;;25.70;96.00;;;;;;5044519;28;19905;-55
2022/06/30 12:56:28;;;;;;;;;;;25.70;96.20;;;;;;5076212;28;19905;-58
2022/06/30 12:59:00;;;;;;;;;;;25.70;96.10;;;;;;5044496;28;20186;-61
2022/06/30 13:01:27;;;;;;;;;;;25.70;96.10;;;;;;5043855;28;20156;-55
2022/06/30 13:03:56;;;;;;;;;;;25.70;96.20;;;;;;5044666;28;19905;-56
2022/06/30 13:06:23;;;;;;;;;;;25.70;96.00;;;;;;5043978;28;19947;-54
2022/06/30 13:08:49;;;;;;;;;;;25.70;96.00;;;;;;5044292;28;20189;-50
2022/06/30 13:11:16;;;;;;;;;;;25.80;95.80;;;;;;5042993;28;19909;-50
2022/06/30 13:13:46;;;;;;;;;;;25.80;95.80;;;;;;5042919;28;19919;-55
2022/06/30 13:16:13;;;;;;;;;;;25.80;95.90;;;;;;5042860;28;19905;-52
2022/06/30 13:18:39;;;;;;;;;;;25.80;95.90;;;;;;5042985;28;19909;-50
2022/06/30 13:21:06;;;;;;;;;;;25.80;95.80;;;;;;5042791;28;19917;-55
2022/06/30 13:23:32;;;;;;;;;;;25.80;95.80;;;;;;5043189;28;19912;-51
2022/06/30 13:25:58;;;;;;;;;;;25.90;95.70;;;;;;5043164;28;19976;-49
2022/06/30 13:28:24;;;;;;;;;;;25.90;95.70;;;;;;5043999;28;19905;-56
2022/06/30 13:30:50;;;;;;;;;;;25.90;95.60;;;;;;5043846;28;19940;-52
2022/06/30 13:33:17;;;;;;;;;;;25.90;95.60;;;;;;5044118;28;20019;-49
2022/06/30 13:35:43;;;;;;;;;;;25.90;95.50;;;;;;5044054;28;20217;-47
2022/06/30 13:38:09;;;;;;;;;;;25.90;95.50;;;;;;5043705;28;20194;-53
2022/06/30 13:40:36;;;;;;;;;;;25.90;95.60;;;;;;5043219;28;19910;-49
2022/06/30 13:43:03;;;;;;;;;;;25.90;95.60;;;;;;5044010;28;19932;-52
2022/06/30 13:45:29;;;;;;;;;;;25.90;95.50;;;;;;5043701;28;19905;-50
2022/06/30 13:47:55;;;;;;;;;;;26.00;95.60;;;;;;5043817;28;20070;-55
2022/06/30 13:50:22;;;;;;;;;;;26.00;95.60;;;;;;5043700;28;19951;-55
2022/06/30 13:52:48;;;;;;;;;;;26.00;95.60;;;;;;5043707;28;19907;-51
2022/06/30 13:55:14;;;;;;;;;;;26.00;95.50;;;;;;5045828;28;19971;-50
2022/06/30 13:57:40;;;;;;;;;;;26.00;95.40;;;;;;5067080;28;19909;-50
2022/06/30 14:00:07;;;;;;;;;;;26.00;95.40;;;;;;5067134;28;19936;-49
2022/06/30 14:02:33;;;;;;;;;;;26.10;95.50;;;;;;5066900;28;20184;-49
2022/06/30 14:04:59;;;;;;;;;;;26.10;95.40;;;;;;5067209;28;20192;-51
2022/06/30 14:07:26;;;;;;;;;;;26.10;95.40;;;;;;5066807;28;20141;-50
2022/06/30 14:09:53;;;;;;;;;;;26.10;95.30;;;;;;5067012;28;20027;-53
2022/06/30 14:12:19;;;;;;;;;;;26.10;95.30;;;;;;5067002;28;19901;-48
2022/06/30 14:14:45;;;;;;;;;;;26.10;95.20;;;;;;5066980;28;19911;-56
2022/06/30 14:17:11;;;;;;;;;;;26.10;95.30;;;;;;5066657;28;20148;-49
2022/06/30 14:19:38;;;;;;;;;;;26.10;95.30;;;;;;5067199;28;20082;-47
2022/06/30 14:22:04;;;;;;;;;;;26.20;95.40;;;;;;5066739;28;19977;-49
2022/06/30 14:24:30;;;;;;;;;;;26.20;95.40;;;;;;5066779;28;19932;-47
2022/06/30 14:26:57;;;;;;;;;;;26.20;95.20;;;;;;5066676;28;19901;-53
2022/06/30 14:29:23;;;;;;;;;;;26.20;95.20;;;;;;5067258;28;20093;-48
2022/06/30 14:31:49;;;;;;;;;;;26.20;95.20;;;;;;5066432;28;20216;-48
2022/06/30 14:34:15;;;;;;;;;;;26.20;95.20;;;;;;5067011;28;20185;-49
2022/06/30 14:36:42;;;;;;;;;;;26.20;95.10;;;;;;5066552;28;19912;-52
2022/06/30 14:39:08;;;;;;;;;;;26.20;95.10;;;;;;5066886;28;19912;-53